Jacksonville International Airport Jacksonville US
ICAO: KJAX
IATA: JAX
Category: Large
Scheduled Services: Yes

Elevation: 30 ft
TransAlt. 18000 ft.

Airport Communications:
APP/DEP:118
ATIS:125.85
CLNC DEL:119.5
GND:121.9
ANG MAINT:25.125
ANG SOF:27.39
ANG COMD POST:25.125
TWR:118.3
UNICOM:122.95

KJAX Zoom In..

If you have problems with the map follow the link
https://www.worldairports.se/pages/airport.php?
ICAO=KJAX

Runways:

(A) RW 08 length 10000 ft width 150 ft
ILS 110.70 / hdg 77

(B) RW 14 length 7701 ft width 150 ft
ILS 110.50 / hdg 137

(C) RW 26 length 10000 ft width 150 ft
ILS 110.30 / hdg 257

(D) RW 32 length 7701 ft width 150 ft
---- / hdg 317

Location; KJAX
Day. 16 / Time. 11.56 Zulu
* Altimeter: 30.15
* Temperature: 03° c. 37.4°f.
* Wind from: 310° Speed 09 kn.
Dewpoint: 01° c.
Visibility: 10 Statute Miles.
Clouds: Broken 1200 ft.

KJAX 161156Z 31009KT 10SM BKN012 03/01 A3015 RMK AO2 SLP210 T00330011 10067 20033 53013


Wind From 310°
Speed 09 kn.

 
 
jpsmedia.com for Web Design worldairports.se 2018   terms of use